Weather at Chicago O'Hare International Airport

Public forecast

Using degrees Fahrenheit for public forecast. Weather courtesy of forecast.io.

Current aviation weather report (METAR) for Chicago O'Hare International Airport

Retrieved 2022/01/29 12:51 UTC (51 minutes ago):

KORD 291251Z 21004KT 10SM SCT050 M13/M18 A3021 RMK AO2 SLP244 T11331178

Aviation forecast (TAF) for Chicago O'Hare International Airport

Retrieved 2022/01/29 12:24 UTC (1 hour ago):

TAF KORD 291123Z 2912/3018 24006KT P6SM SCT030 OVC050 FM291700 20010KT P6SM FEW040 BKN080 FM292300 17007KT P6SM BKN150 FM301000 30008KT P6SM SCT030 BKN200 FM301500 33012KT P6SM BKN025